Time;durP1;ratioP1;P1;durP2;ratioP2;P2;SDS_P1;SDS_P2;PMS_P1;PMS_P2;Temp;Humidity;BMP_temperature;BMP_pressure;BME280_temperature;BME280_humidity;BME280_pressure;Samples;Min_cycle;Max_cycle;Signal;HPM_P1;HPM_P2
2021/04/05 00:00:56;;;;;;;20.77;12.30;;;5.10;81.50;;;;;;5011968;28;20113;-62
2021/04/05 00:03:22;;;;;;;17.50;12.50;;;5.00;82.00;;;;;;5006294;28;20035;-63
2021/04/05 00:05:48;;;;;;;17.98;12.32;;;5.10;81.30;;;;;;5000541;28;20393;-63
2021/04/05 00:08:13;;;;;;;17.83;12.15;;;5.10;81.30;;;;;;5003618;28;20030;-63
2021/04/05 00:10:48;;;;;;;24.13;13.50;;;5.10;81.10;;;;;;5003532;28;20026;-61
2021/04/05 00:13:21;;;;;;;;;;;5.20;81.10;;;;;;5015958;28;20030;-62
2021/04/05 00:15:47;;;;;;;26.15;14.05;;;5.20;80.60;;;;;;5009266;28;20345;-62
2021/04/05 00:18:14;;;;;;;20.65;13.38;;;5.40;80.40;;;;;;5010949;28;20075;-62
2021/04/05 00:20:49;;;;;;;20.95;12.95;;;5.40;79.90;;;;;;5014131;28;20030;-62
2021/04/05 00:23:15;;;;;;;;;;;5.60;79.30;;;;;;5012608;28;20018;-62
2021/04/05 00:25:40;;;;;;;21.60;12.68;;;5.60;79.20;;;;;;5011394;28;19918;-64
2021/04/05 00:28:06;;;;;;;21.67;13.55;;;5.70;79.20;;;;;;5011082;28;20081;-62
2021/04/05 00:30:34;;;;;;;19.90;12.85;;;5.70;78.70;;;;;;5011697;28;20096;-61
2021/04/05 00:33:00;;;;;;;17.85;11.88;;;5.70;78.80;;;;;;5012363;28;20042;-62
2021/04/05 00:35:28;;;;;;;20.33;13.00;;;5.80;78.60;;;;;;5011810;28;20041;-62
2021/04/05 00:37:56;;;;;;;19.77;12.90;;;5.80;78.50;;;;;;5010950;28;20044;-61
2021/04/05 00:40:42;;;;;;;19.00;12.90;;;5.80;78.90;;;;;;5010580;28;20084;-63
2021/04/05 00:43:10;;;;;;;22.52;14.48;;;5.70;78.70;;;;;;5010771;28;20034;-61
2021/04/05 00:45:37;;;;;;;24.45;13.88;;;5.70;78.90;;;;;;5013738;28;20041;-63
2021/04/05 00:48:04;;;;;;;18.70;12.25;;;5.60;79.20;;;;;;5013750;28;20052;-62
2021/04/05 00:50:33;;;;;;;19.50;13.60;;;5.60;79.60;;;;;;5014981;28;20036;-63
2021/04/05 00:53:03;;;;;;;24.30;14.52;;;5.60;79.70;;;;;;5011242;28;20052;-61
2021/04/05 00:55:29;;;;;;;23.48;14.43;;;5.40;80.40;;;;;;5012947;28;20393;-61
2021/04/05 00:57:56;;;;;;;23.70;14.60;;;5.30;80.80;;;;;;5012015;28;20050;-63
2021/04/05 01:00:36;;;;;;;21.10;15.15;;;5.40;80.60;;;;;;5012318;28;20046;-61
2021/04/05 01:03:03;;;;;;;23.30;14.40;;;5.40;80.60;;;;;;4993688;28;20061;-62
2021/04/05 01:05:29;;;;;;;25.90;15.75;;;5.50;80.40;;;;;;4993832;28;20085;-61
2021/04/05 01:07:56;;;;;;;23.80;14.85;;;5.50;80.20;;;;;;5018400;28;20033;-62
2021/04/05 01:10:23;;;;;;;24.58;15.02;;;5.60;80.00;;;;;;5011856;28;20037;-61
2021/04/05 01:12:49;;;;;;;24.70;14.82;;;5.60;79.50;;;;;;5012692;28;20038;-61
2021/04/05 01:15:16;;;;;;;27.40;16.83;;;5.60;80.00;;;;;;5013311;28;20133;-62
2021/04/05 01:17:42;;;;;;;23.58;15.18;;;5.60;80.20;;;;;;5012122;28;20091;-62
2021/04/05 01:20:15;;;;;;;26.02;16.98;;;5.60;80.00;;;;;;5012935;28;20109;-62
2021/04/05 01:22:42;;;;;;;23.73;15.63;;;5.70;79.70;;;;;;5029739;28;20034;-62
2021/04/05 01:25:14;;;;;;;28.40;17.52;;;5.80;79.40;;;;;;5013917;28;20583;-61
2021/04/05 01:27:40;;;;;;;26.45;16.23;;;5.70;80.10;;;;;;5012960;28;20138;-61
2021/04/05 01:30:33;;;;;;;32.30;17.88;;;5.60;80.50;;;;;;5013785;28;20034;-63
2021/04/05 01:33:18;;;;;;;27.70;17.50;;;5.50;81.00;;;;;;5016934;28;20042;-62
2021/04/05 01:36:06;;;;;;;27.48;18.67;;;5.40;81.40;;;;;;5011505;28;20018;-61
2021/04/05 01:38:39;;;;;;;28.15;17.95;;;5.40;81.60;;;;;;5011955;28;20037;-63
2021/04/05 01:41:13;;;;;;;33.63;18.25;;;5.30;82.10;;;;;;5013997;28;20021;-62
2021/04/05 01:43:40;;;;;;;28.70;16.98;;;5.10;82.80;;;;;;5018528;28;20064;-62
2021/04/05 01:46:07;;;;;;;28.77;17.08;;;5.10;83.10;;;;;;5014416;28;20100;-60
2021/04/05 01:48:34;;;;;;;29.42;15.80;;;5.20;82.60;;;;;;4994511;28;20446;-62
2021/04/05 01:51:03;;;;;;;30.95;15.93;;;5.20;82.70;;;;;;5013802;28;20437;-63
2021/04/05 01:53:34;;;;;;;27.90;16.30;;;5.10;83.00;;;;;;5014681;28;20030;-61
2021/04/05 01:56:01;;;;;;;26.27;16.30;;;5.10;83.00;;;;;;5013781;28;20558;-62
2021/04/05 01:58:27;;;;;;;26.10;16.73;;;5.20;82.50;;;;;;5013857;28;20033;-61
2021/04/05 02:00:54;;;;;;;24.30;14.98;;;5.20;82.40;;;;;;4997626;28;20052;-62
2021/04/05 02:03:20;;;;;;;28.42;15.60;;;5.30;82.00;;;;;;5014305;28;20038;-62
2021/04/05 02:06:00;;;;;;;28.10;15.95;;;5.40;81.70;;;;;;5030530;28;20087;-61
2021/04/05 02:08:28;;;;;;;26.52;16.02;;;5.60;81.00;;;;;;5033383;28;20033;-61
2021/04/05 02:10:57;;;;;;;26.92;15.13;;;5.70;80.40;;;;;;5017505;28;20030;-62
2021/04/05 02:13:24;;;;;;;27.67;16.08;;;5.80;80.20;;;;;;5013990;28;20072;-61
2021/04/05 02:15:50;;;;;;;27.50;16.13;;;5.90;80.10;;;;;;5028453;28;20069;-60
2021/04/05 02:18:17;;;;;;;26.27;16.58;;;5.90;79.40;;;;;;5032093;28;20088;-62
2021/04/05 02:20:43;;;;;;;27.52;16.25;;;5.90;79.40;;;;;;5019581;28;20053;-60
2021/04/05 02:23:09;;;;;;;28.98;17.20;;;5.90;79.90;;;;;;5013331;28;20440;-61
2021/04/05 02:25:36;;;;;;;27.70;16.73;;;5.90;79.90;;;;;;5013733;28;20501;-61
2021/04/05 02:28:04;;;;;;;30.00;16.98;;;5.80;80.20;;;;;;5013320;28;20457;-62
2021/04/05 02:30:31;;;;;;;31.65;17.67;;;5.70;80.40;;;;;;5023561;28;20065;-62
2021/04/05 02:33:03;;;;;;;37.08;17.80;;;5.60;80.10;;;;;;5033118;28;20120;-62
2021/04/05 02:35:33;;;;;;;34.25;18.05;;;5.50;80.30;;;;;;5021840;28;20385;-61
2021/04/05 02:38:03;;;;;;;32.78;18.98;;;5.60;79.30;;;;;;5012972;28;20033;-62
2021/04/05 02:40:29;;;;;;;34.88;17.98;;;5.70;78.90;;;;;;5021678;28;20060;-62
2021/04/05 02:42:56;;;;;;;33.35;18.52;;;5.80;78.60;;;;;;5031826;28;20108;-63
2021/04/05 02:45:23;;;;;;;34.35;18.70;;;5.80;78.60;;;;;;5024660;28;20026;-63
2021/04/05 02:47:55;;;;;;;38.25;19.50;;;5.80;78.30;;;;;;5013052;28;20106;-62
2021/04/05 02:50:27;;;;;;;36.00;19.88;;;5.80;77.90;;;;;;5020040;28;20493;-61
2021/04/05 02:52:59;;;;;;;32.97;19.25;;;5.80;77.70;;;;;;5032717;28;20072;-62
2021/04/05 02:55:25;;;;;;;37.15;19.27;;;5.80;77.80;;;;;;5024975;28;20389;-61
2021/04/05 02:57:52;;;;;;;36.65;19.35;;;5.80;77.80;;;;;;5012257;28;20045;-62
2021/04/05 03:00:20;;;;;;;35.95;20.25;;;5.90;77.20;;;;;;5016586;28;20029;-62
2021/04/05 03:02:47;;;;;;;33.65;19.60;;;5.80;77.20;;;;;;5032980;28;20030;-63
2021/04/05 03:05:17;;;;;;;38.58;20.92;;;5.90;77.30;;;;;;5027936;28;20041;-62
2021/04/05 03:07:43;;;;;;;32.70;19.20;;;5.80;77.30;;;;;;5010000;28;20173;-62
2021/04/05 03:10:10;;;;;;;38.53;21.98;;;5.80;77.40;;;;;;5016113;28;20473;-61
2021/04/05 03:12:38;;;;;;;40.30;21.17;;;5.70;77.50;;;;;;5032729;28;20042;-62
2021/04/05 03:15:10;;;;;;;36.67;20.17;;;5.80;77.90;;;;;;5030956;28;20112;-62
2021/04/05 03:17:37;;;;;;;40.70;20.48;;;5.70;77.60;;;;;;5031945;28;20396;-62
2021/04/05 03:20:08;;;;;;;38.15;20.90;;;5.70;78.00;;;;;;5028818;28;20073;-63
2021/04/05 03:22:35;;;;;;;43.83;22.23;;;5.70;78.20;;;;;;5011268;28;20068;-62
2021/04/05 03:25:01;;;;;;;35.88;20.98;;;5.80;78.10;;;;;;5012918;28;20048;-62
2021/04/05 03:27:27;;;;;;;38.05;22.45;;;5.80;77.90;;;;;;5031793;28;20041;-62
2021/04/05 03:29:55;;;;;;;43.20;22.08;;;5.80;77.70;;;;;;5031790;28;20553;-62
2021/04/05 03:32:23;;;;;;;39.33;21.70;;;5.80;77.40;;;;;;5012236;28;20117;-61
2021/04/05 03:34:55;;;;;;;36.85;21.25;;;5.70;77.40;;;;;;5012366;28;20129;-60
2021/04/05 03:37:23;;;;;;;39.00;21.15;;;5.70;78.00;;;;;;5030897;28;20041;-62
2021/04/05 03:39:50;;;;;;;41.97;23.00;;;5.70;77.80;;;;;;5031730;28;20116;-61
2021/04/05 03:42:32;;;;;;;43.42;22.60;;;5.70;78.20;;;;;;5014171;28;20042;-62
2021/04/05 03:45:05;;;;;;;40.25;22.58;;;5.60;78.20;;;;;;5013038;28;20093;-62
2021/04/05 03:47:54;;;;;;;44.83;24.33;;;5.50;78.70;;;;;;5031674;28;20041;-61
2021/04/05 03:50:33;;;;;;;46.30;24.65;;;5.50;79.20;;;;;;5031779;28;20116;-62
2021/04/05 03:53:17;;;;;;;42.05;23.00;;;5.60;78.70;;;;;;4995427;28;20038;-62
2021/04/05 03:55:44;;;;;;;38.65;20.77;;;5.60;79.00;;;;;;5015758;28;20492;-62
2021/04/05 03:58:14;;;;;;;39.55;22.63;;;5.60;79.00;;;;;;5027613;28;20029;-61
2021/04/05 04:00:42;;;;;;;39.25;21.67;;;5.60;79.30;;;;;;5014409;28;20030;-61
2021/04/05 04:03:13;;;;;;;39.30;23.17;;;5.60;79.10;;;;;;5031585;28;20068;-62
2021/04/05 04:05:43;;;;;;;39.03;22.58;;;5.50;79.30;;;;;;5030016;28;20025;-62
2021/04/05 04:10:48;;;;;;;45.67;25.70;;;5.70;79.20;;;;;;5012358;28;20034;-61
2021/04/05 04:13:16;;;;;;;37.40;22.40;;;5.60;79.10;;;;;;5032842;28;20038;-61
2021/04/05 04:15:42;;;;;;;43.13;24.67;;;5.70;79.10;;;;;;5030606;28;20179;-61
2021/04/05 04:18:09;;;;;;;45.97;23.85;;;5.70;79.10;;;;;;5010713;28;20034;-62
2021/04/05 04:20:37;;;;;;;45.35;25.48;;;5.70;79.30;;;;;;5015225;28;20556;-62
2021/04/05 04:23:03;;;;;;;46.03;23.30;;;5.80;79.00;;;;;;5034959;28;20048;-62
2021/04/05 04:25:29;;;;;;;43.92;23.17;;;5.90;78.80;;;;;;5022568;28;20603;-62
2021/04/05 04:27:54;;;;;;;43.33;25.63;;;5.80;79.20;;;;;;5033403;28;20148;-62
2021/04/05 04:30:32;;;;;;;43.13;23.33;;;5.80;79.30;;;;;;5035070;28;20038;-62
2021/04/05 04:33:07;;;;;;;41.25;23.92;;;5.80;79.00;;;;;;5015982;28;20050;-61
2021/04/05 04:35:35;;;;;;;42.60;23.27;;;5.80;79.00;;;;;;5015602;28;20026;-62
2021/04/05 04:38:02;;;;;;;45.03;24.20;;;5.80;78.80;;;;;;5032711;28;20523;-62
2021/04/05 04:40:29;;;;;;;38.88;23.17;;;5.90;78.50;;;;;;5033973;28;20040;-61
2021/04/05 04:43:00;;;;;;;40.08;22.83;;;5.90;78.60;;;;;;5018594;28;20116;-63
2021/04/05 04:45:26;;;;;;;40.28;21.13;;;6.00;78.10;;;;;;5015493;28;20037;-63
2021/04/05 04:47:53;;;;;;;39.85;23.73;;;5.90;78.20;;;;;;5030298;28;20033;-62
2021/04/05 04:50:20;;;;;;;41.20;23.27;;;5.90;78.30;;;;;;5035117;28;20033;-61
2021/04/05 04:52:46;;;;;;;40.58;23.55;;;5.90;78.20;;;;;;5020399;28;20569;-62
2021/04/05 04:55:12;;;;;;;41.55;23.75;;;6.10;77.40;;;;;;5015418;28;20494;-61
2021/04/05 04:57:38;;;;;;;38.58;23.80;;;6.10;77.30;;;;;;5015744;28;20090;-62
2021/04/05 05:00:05;;;;;;;39.40;24.20;;;6.10;77.60;;;;;;5015648;28;20026;-62
2021/04/05 05:02:32;;;;;;;41.67;23.05;;;6.10;77.30;;;;;;5016280;28;20045;-61
2021/04/05 05:04:59;;;;;;;41.63;24.98;;;6.00;77.70;;;;;;5015755;28;20048;-62
2021/04/05 05:07:26;;;;;;;37.78;22.85;;;6.00;78.00;;;;;;5024807;28;20041;-61
2021/04/05 05:09:52;;;;;;;40.70;23.45;;;6.00;78.10;;;;;;5034719;28;20041;-63
2021/04/05 05:12:18;;;;;;;42.03;22.90;;;6.10;77.70;;;;;;5007615;28;20119;-61
2021/04/05 05:14:46;;;;;;;44.83;23.00;;;6.10;77.50;;;;;;5016779;28;20030;-62
2021/04/05 05:17:12;;;;;;;47.58;24.05;;;6.10;77.60;;;;;;5021376;28;20038;-62
2021/04/05 05:19:39;;;;;;;45.25;24.83;;;6.20;77.40;;;;;;5033631;28;20092;-62
2021/04/05 05:22:07;;;;;;;45.30;23.92;;;6.20;78.20;;;;;;5019967;28;20037;-61
2021/04/05 05:24:34;;;;;;;39.28;23.25;;;6.20;77.60;;;;;;5030255;28;20053;-62
2021/04/05 05:27:02;;;;;;;38.25;22.67;;;6.10;77.80;;;;;;5017514;28;20040;-61
2021/04/05 05:29:28;;;;;;;45.63;24.95;;;6.20;77.70;;;;;;5034732;28;20030;-63
2021/04/05 05:31:54;;;;;;;41.35;23.45;;;6.20;78.00;;;;;;5033155;28;20069;-63
2021/04/05 05:34:21;;;;;;;42.60;22.63;;;6.00;78.80;;;;;;5035197;28;20040;-62
2021/04/05 05:36:47;;;;;;;41.67;24.02;;;6.10;78.40;;;;;;5033816;28;20132;-61
2021/04/05 05:39:15;;;;;;;43.45;23.25;;;6.10;78.60;;;;;;5015950;28;20113;-63
2021/04/05 05:41:44;;;;;;;41.67;23.92;;;6.10;78.40;;;;;;5014150;28;20056;-63
2021/04/05 05:44:38;;;;;;;41.08;22.35;;;6.00;79.00;;;;;;5034447;28;20486;-60
2021/04/05 05:47:09;;;;;;;42.70;22.67;;;6.10;78.70;;;;;;5029937;28;20065;-62
2021/04/05 05:49:50;;;;;;;39.80;22.58;;;6.10;78.40;;;;;;5015875;28;20022;-64
2021/04/05 05:52:53;;;;;;;40.40;22.95;;;6.20;78.60;;;;;;5016318;28;20033;-61
2021/04/05 05:55:41;;;;;;;40.45;22.77;;;6.30;78.20;;;;;;5034016;28;20087;-63
2021/04/05 05:58:16;;;;;;;43.55;22.50;;;6.40;77.80;;;;;;5019155;28;20027;-61
2021/04/05 06:01:08;;;;;;;34.78;23.45;;;6.40;77.90;;;;;;4994885;28;20023;-61
2021/04/05 06:03:47;;;;;;;34.00;21.65;;;6.40;77.60;;;;;;5020370;28;20124;-62
2021/04/05 06:06:32;;;;;;;39.58;22.42;;;6.40;77.30;;;;;;5033387;28;20037;-62
2021/04/05 06:09:27;;;;;;;37.13;21.88;;;6.50;77.50;;;;;;5017786;28;20045;-62
2021/04/05 06:12:13;;;;;;;36.50;22.48;;;6.60;76.80;;;;;;5014008;28;20042;-61
2021/04/05 06:15:09;;;;;;;42.35;23.08;;;6.60;76.70;;;;;;4994010;28;20045;-61
2021/04/05 06:17:47;;;;;;;40.33;22.20;;;6.60;76.30;;;;;;4999308;28;20052;-59
2021/04/05 06:20:21;;;;;;;37.05;21.35;;;6.70;76.20;;;;;;5033625;28;20500;-62
2021/04/05 06:23:14;;;;;;;35.22;20.92;;;6.70;76.30;;;;;;5033339;28;20053;-62
2021/04/05 06:26:07;;;;;;;37.70;21.38;;;6.70;76.50;;;;;;5019751;28;20042;-62
2021/04/05 06:28:41;;;;;;;42.95;22.60;;;6.70;76.80;;;;;;5022941;28;20078;-60
2021/04/05 06:31:36;;;;;;;40.90;22.08;;;6.70;76.80;;;;;;5024552;28;20034;-61
2021/04/05 06:34:32;;;;;;;37.97;22.40;;;6.80;76.50;;;;;;5012201;28;20064;-63
2021/04/05 06:37:22;;;;;;;35.00;21.42;;;6.90;76.50;;;;;;5028099;28;20559;-63
2021/04/05 06:39:57;;;;;;;38.20;21.23;;;6.90;76.50;;;;;;5032778;28;20075;-64
2021/04/05 06:42:42;;;;;;;33.83;21.10;;;6.90;76.60;;;;;;5014180;28;20030;-62
2021/04/05 06:45:16;;;;;;;40.47;22.27;;;6.90;76.00;;;;;;5013285;28;20038;-62
2021/04/05 06:47:44;;;;;;;37.20;21.50;;;6.80;76.40;;;;;;5032290;28;20512;-62
2021/04/05 06:50:31;;;;;;;40.28;23.27;;;6.90;76.40;;;;;;5031967;28;20033;-61
2021/04/05 06:53:34;;;;;;;39.67;22.40;;;7.00;76.50;;;;;;4993393;28;20034;-63
2021/04/05 06:56:03;;;;;;;42.17;23.38;;;6.90;76.90;;;;;;5003091;28;20171;-64
2021/04/05 06:58:47;;;;;;;37.78;22.20;;;7.00;77.00;;;;;;5026081;28;20066;-63
2021/04/05 07:01:28;;;;;;;41.70;23.53;;;7.00;77.60;;;;;;5021937;28;20124;-61
2021/04/05 07:04:06;;;;;;;47.05;21.42;;;7.00;77.00;;;;;;5032396;28;20172;-62
2021/04/05 07:06:47;;;;;;;40.03;22.52;;;7.00;76.90;;;;;;5020218;28;20037;-64
2021/04/05 07:09:40;;;;;;;43.63;22.70;;;6.90;77.50;;;;;;5012662;28;20037;-61
2021/04/05 07:12:05;;;;;;;36.63;21.13;;;7.00;77.70;;;;;;5023580;28;20030;-62
2021/04/05 07:15:04;;;;;;;39.50;21.77;;;7.00;77.50;;;;;;5012576;28;20702;-62
2021/04/05 07:17:55;;;;;;;40.80;22.80;;;7.10;77.40;;;;;;5013425;28;20604;-63
2021/04/05 07:20:24;;;;;;;38.33;21.95;;;7.10;77.50;;;;;;5010927;28;20036;-62
2021/04/05 07:22:59;;;;;;;39.67;22.45;;;7.10;77.90;;;;;;5031991;28;20029;-62
2021/04/05 07:25:49;;;;;;;35.33;22.08;;;7.20;77.80;;;;;;5020641;28;20100;-62
2021/04/05 07:28:32;;;;;;;40.55;22.77;;;7.10;77.90;;;;;;4992358;28;20062;-63
2021/04/05 07:31:14;;;;;;;36.08;20.90;;;7.10;78.20;;;;;;5000582;28;20108;-61
2021/04/05 07:33:42;;;;;;;40.25;23.52;;;7.10;78.50;;;;;;5034072;28;20037;-60
2021/04/05 07:36:29;;;;;;;37.05;21.48;;;7.20;78.20;;;;;;5029264;28;20061;-62
2021/04/05 07:39:26;;;;;;;40.33;23.10;;;7.30;78.20;;;;;;5012498;28;20037;-62
2021/04/05 07:41:57;;;;;;;42.53;22.85;;;7.40;78.10;;;;;;5023561;28;20061;-63
2021/04/05 07:44:32;;;;;;;40.38;23.77;;;7.40;78.20;;;;;;5032277;28;20391;-61
2021/04/05 07:47:02;;;;;;;;;;;7.40;78.70;;;;;;5022239;28;20041;-62
2021/04/05 07:49:31;;;;;;;38.10;22.25;;;7.30;78.40;;;;;;5013046;28;19913;-62
2021/04/05 07:52:12;;;;;;;40.25;21.98;;;7.40;78.70;;;;;;5021967;28;20392;-63
2021/04/05 07:54:38;;;;;;;43.33;23.08;;;7.40;78.60;;;;;;5033839;28;20053;-63
2021/04/05 07:57:47;;;;;;;33.17;21.38;;;7.40;78.60;;;;;;5025740;28;20040;-61
2021/04/05 08:00:27;;;;;;;35.22;20.70;;;7.50;78.20;;;;;;5000879;28;20053;-61
2021/04/05 08:03:15;;;;;;;37.97;21.50;;;7.40;78.20;;;;;;5016143;28;20045;-61
2021/04/05 08:05:52;;;;;;;38.92;21.65;;;7.40;78.70;;;;;;5022040;28;20025;-61
2021/04/05 08:08:38;;;;;;;42.10;22.33;;;7.40;78.70;;;;;;5035627;28;20033;-61
2021/04/05 08:11:21;;;;;;;39.42;20.90;;;7.40;78.50;;;;;;5018398;28;20030;-61
2021/04/05 08:14:20;;;;;;;39.40;21.73;;;7.50;79.00;;;;;;5016453;28;20034;-63
2021/04/05 08:17:12;;;;;;;39.40;21.50;;;7.50;78.60;;;;;;4997341;28;20142;-63
2021/04/05 08:20:14;;;;;;;43.00;23.17;;;7.50;78.50;;;;;;5015971;28;20038;-61
2021/04/05 08:22:48;;;;;;;41.20;23.73;;;7.50;78.90;;;;;;5002941;28;20082;-62
2021/04/05 08:25:55;;;;;;;41.72;22.08;;;7.50;78.90;;;;;;5018034;28;20065;-62
2021/04/05 08:29:02;;;;;;;42.00;21.67;;;7.50;79.10;;;;;;5017312;28;20052;-62
2021/04/05 08:31:55;;;;;;;43.75;23.05;;;7.50;79.70;;;;;;4983143;28;20045;-65
2021/04/05 08:34:35;;;;;;;40.13;23.73;;;7.50;80.70;;;;;;5031453;28;20507;-62
2021/04/05 08:37:17;;;;;;;38.00;23.48;;;7.40;81.30;;;;;;5034063;28;20045;-64
2021/04/05 08:40:24;;;;;;;39.55;22.25;;;7.40;82.50;;;;;;5034667;28;20036;-63
2021/04/05 08:43:09;;;;;;;38.17;22.90;;;7.30;83.00;;;;;;5031141;28;20045;-66
2021/04/05 08:45:45;;;;;;;37.58;22.23;;;7.20;84.00;;;;;;5034967;28;20032;-62
2021/04/05 08:48:17;;;;;;;35.20;21.95;;;7.10;83.90;;;;;;5015577;28;20034;-62
2021/04/05 08:50:51;;;;;;;42.08;23.65;;;7.20;84.80;;;;;;5017134;28;20485;-64
2021/04/05 08:53:18;;;;;;;39.42;23.15;;;7.10;85.30;;;;;;5035625;28;20034;-65
2021/04/05 08:55:44;;;;;;;37.85;23.05;;;7.00;85.60;;;;;;5034642;28;20021;-63
2021/04/05 08:58:20;;;;;;;43.65;22.52;;;7.00;85.90;;;;;;5015614;28;20033;-64
2021/04/05 09:00:48;;;;;;;42.40;23.10;;;7.00;85.90;;;;;;5016548;28;20048;-64
2021/04/05 09:03:21;;;;;;;39.22;22.25;;;7.00;85.80;;;;;;5016412;28;20062;-65
2021/04/05 09:05:49;;;;;;;39.45;22.02;;;7.00;86.20;;;;;;5020603;28;20045;-62
2021/04/05 09:08:19;;;;;;;40.58;22.65;;;7.00;85.80;;;;;;5025308;28;20049;-62
2021/04/05 09:11:07;;;;;;;38.58;22.48;;;7.00;86.90;;;;;;5017121;28;20026;-62
2021/04/05 09:13:52;;;;;;;40.92;23.05;;;7.00;87.90;;;;;;5014714;28;20057;-62
2021/04/05 09:16:38;;;;;;;37.33;22.50;;;6.90;87.50;;;;;;5026282;28;20441;-64
2021/04/05 09:19:21;;;;;;;37.13;21.88;;;6.90;87.50;;;;;;5035600;28;20073;-65
2021/04/05 09:21:55;;;;;;;40.13;22.30;;;6.80;88.70;;;;;;5021161;28;20088;-63
2021/04/05 09:24:58;;;;;;;40.40;22.20;;;6.80;88.60;;;;;;5016087;28;20065;-64
2021/04/05 09:27:38;;;;;;;39.17;22.17;;;6.90;88.30;;;;;;5028638;28;20046;-63
2021/04/05 09:30:43;;;;;;;38.75;21.95;;;6.80;88.40;;;;;;5010836;28;20102;-62
2021/04/05 09:33:28;;;;;;;42.03;23.02;;;6.80;88.90;;;;;;5011157;28;20041;-63
2021/04/05 09:36:30;;;;;;;46.27;24.17;;;6.80;89.50;;;;;;5012523;28;20623;-62
2021/04/05 09:39:22;;;;;;;42.50;23.50;;;6.70;90.00;;;;;;5019108;28;20300;-63
2021/04/05 09:42:15;;;;;;;40.13;23.15;;;6.60;90.20;;;;;;5011272;28;20036;-62
2021/04/05 09:45:11;;;;;;;39.67;21.45;;;6.70;90.00;;;;;;5015491;28;20033;-63
2021/04/05 09:48:13;;;;;;;38.15;21.88;;;6.70;89.80;;;;;;5014535;28;20060;-64
2021/04/05 09:51:23;;;;;;;37.40;21.88;;;6.80;89.80;;;;;;5013135;28;20026;-62
2021/04/05 09:54:10;;;;;;;37.05;21.25;;;6.80;89.20;;;;;;5022328;28;20042;-62
2021/04/05 09:56:44;;;;;;;39.38;21.02;;;6.80;88.90;;;;;;5013468;28;20603;-61
2021/04/05 09:59:13;;;;;;;36.08;20.02;;;6.80;89.10;;;;;;5016529;28;20038;-62
2021/04/05 10:01:40;;;;;;;35.65;21.13;;;6.70;89.30;;;;;;5014794;28;20048;-64
2021/04/05 10:04:10;;;;;;;32.22;20.00;;;6.60;89.70;;;;;;5018828;28;20045;-62
2021/04/05 10:06:37;;;;;;;35.38;21.00;;;6.70;89.30;;;;;;5014511;28;20117;-62
2021/04/05 10:09:04;;;;;;;33.05;19.88;;;6.70;89.60;;;;;;5013171;28;20034;-65
2021/04/05 10:11:33;;;;;;;11.07;4.40;;;6.70;90.00;;;;;;5028624;28;20037;-64
2021/04/05 10:14:03;;;;;;;6.00;3.10;;;5.70;85.60;;;;;;5016887;28;20029;-63
2021/04/05 10:16:30;;;;;;;3.13;1.65;;;4.40;90.60;;;;;;5013363;28;20038;-61
2021/04/05 10:19:26;;;;;;;2.13;1.40;;;3.70;91.10;;;;;;5012989;28;20034;-63
2021/04/05 10:22:00;;;;;;;1.73;1.50;;;3.20;92.00;;;;;;5012511;28;20675;-65
2021/04/05 10:24:27;;;;;;;2.73;1.40;;;3.00;92.70;;;;;;5011773;28;20141;-66
2021/04/05 10:26:55;;;;;;;1.77;1.50;;;2.80;93.00;;;;;;5013890;28;20125;-65
2021/04/05 10:29:30;;;;;;;1.40;1.30;;;2.90;93.00;;;;;;5013764;28;20034;-65
2021/04/05 10:32:00;;;;;;;5.07;2.10;;;2.80;93.40;;;;;;5011456;28;20101;-66
2021/04/05 10:34:27;;;;;;;2.42;1.83;;;2.90;93.30;;;;;;5013153;28;20383;-66
2021/04/05 10:37:17;;;;;;;2.90;2.40;;;2.90;93.20;;;;;;4997534;28;20038;-67
2021/04/05 10:39:51;;;;;;;1.67;1.58;;;2.90;93.40;;;;;;5029245;28;20045;-68
2021/04/05 10:42:45;;;;;;;2.90;2.13;;;3.00;93.10;;;;;;5012938;28;20038;-67
2021/04/05 10:45:21;;;;;;;2.45;1.70;;;2.70;94.10;;;;;;5020060;28;20052;-68
2021/04/05 10:48:05;;;;;;;2.13;1.80;;;2.90;94.00;;;;;;5014474;28;20481;-67
2021/04/05 10:50:39;;;;;;;4.80;1.83;;;3.20;93.10;;;;;;5015198;28;20026;-67
2021/04/05 10:53:11;;;;;;;2.70;2.10;;;3.10;93.00;;;;;;5020646;28;20284;-67
2021/04/05 10:55:41;;;;;;;2.67;1.98;;;3.10;93.30;;;;;;5022392;28;20069;-67
2021/04/05 10:58:14;;;;;;;3.45;1.73;;;3.00;93.10;;;;;;5018619;28;20496;-68
2021/04/05 11:00:46;;;;;;;3.70;2.20;;;3.00;93.60;;;;;;5027435;28;20045;-67
2021/04/05 11:03:19;;;;;;;2.70;2.20;;;3.10;93.10;;;;;;5025833;28;20044;-67
2021/04/05 11:05:49;;;;;;;2.78;1.83;;;3.00;93.40;;;;;;5022216;28;20045;-67
2021/04/05 11:08:20;;;;;;;3.58;2.50;;;3.10;93.10;;;;;;5026362;28;20048;-66
2021/04/05 11:10:47;;;;;;;4.55;2.42;;;3.20;92.80;;;;;;5021777;28;20500;-66
2021/04/05 11:13:16;;;;;;;4.28;3.08;;;3.00;93.10;;;;;;5032473;28;20025;-66
2021/04/05 11:15:44;;;;;;;3.15;2.38;;;2.80;93.90;;;;;;5031888;28;20054;-67
2021/04/05 11:18:13;;;;;;;2.60;2.33;;;3.10;93.20;;;;;;5028873;28;20040;-67
2021/04/05 11:20:41;;;;;;;3.25;2.50;;;3.00;93.30;;;;;;5026095;28;20119;-66
2021/04/05 11:23:16;;;;;;;3.25;2.45;;;2.80;93.60;;;;;;5005226;28;20034;-65
2021/04/05 11:25:48;;;;;;;2.40;2.20;;;3.00;93.50;;;;;;5013046;28;20038;-64
2021/04/05 11:28:14;;;;;;;3.78;2.30;;;3.10;93.50;;;;;;5013728;28;20489;-65
2021/04/05 11:30:41;;;;;;;3.60;2.33;;;3.40;92.90;;;;;;5014189;28;20034;-66
2021/04/05 11:33:10;;;;;;;2.90;2.30;;;3.50;92.70;;;;;;5016291;28;20101;-65
2021/04/05 11:35:40;;;;;;;4.05;2.42;;;3.70;92.40;;;;;;5018388;28;20025;-64
2021/04/05 11:38:13;;;;;;;3.70;2.63;;;3.80;92.10;;;;;;5020559;28;20061;-63
2021/04/05 11:40:40;;;;;;;3.45;2.90;;;3.80;92.30;;;;;;5028388;28;20128;-65
2021/04/05 11:43:17;;;;;;;4.85;3.00;;;3.80;92.10;;;;;;5016870;28;20109;-65
2021/04/05 11:45:49;;;;;;;3.10;2.58;;;3.60;92.40;;;;;;5017828;28;20034;-64
2021/04/05 11:48:22;;;;;;;4.82;2.70;;;3.70;92.20;;;;;;5021694;28;20519;-64
2021/04/05 11:50:50;;;;;;;4.28;2.80;;;3.70;92.40;;;;;;5025435;28;20034;-65
2021/04/05 11:53:36;;;;;;;3.70;2.60;;;3.80;92.90;;;;;;5020665;28;20390;-64
2021/04/05 11:56:14;;;;;;;3.75;2.83;;;4.10;91.80;;;;;;5019537;28;20033;-65
2021/04/05 11:58:44;;;;;;;5.25;2.70;;;3.90;91.90;;;;;;5016541;28;20029;-64
2021/04/05 12:01:15;;;;;;;4.03;2.83;;;4.00;91.70;;;;;;5015535;28;20497;-64
2021/04/05 12:03:59;;;;;;;3.88;2.90;;;3.90;91.60;;;;;;5013959;28;20045;-62
2021/04/05 12:06:48;;;;;;;3.97;2.97;;;4.00;91.40;;;;;;5013265;28;20163;-64
2021/04/05 12:09:25;;;;;;;6.20;2.90;;;4.20;91.10;;;;;;5014519;28;20500;-65
2021/04/05 12:11:54;;;;;;;3.55;2.92;;;4.10;91.30;;;;;;5024310;28;20030;-64
2021/04/05 12:14:26;;;;;;;3.05;2.65;;;4.10;91.10;;;;;;5031214;28;20083;-65
2021/04/05 12:16:58;;;;;;;3.72;2.33;;;4.10;90.80;;;;;;5029412;28;20523;-62
2021/04/05 12:19:45;;;;;;;2.97;2.40;;;4.40;90.60;;;;;;5026339;28;20053;-66
2021/04/05 12:22:12;;;;;;;4.78;2.58;;;4.50;90.20;;;;;;5028230;28;20117;-63
2021/04/05 12:24:46;;;;;;;2.78;2.05;;;4.40;90.50;;;;;;5032055;28;20045;-63
2021/04/05 12:27:13;;;;;;;6.28;2.58;;;4.40;89.60;;;;;;5016060;28;20520;-65
2021/04/05 12:29:42;;;;;;;3.22;2.00;;;4.50;88.40;;;;;;5027273;28;20101;-64
2021/04/05 12:32:15;;;;;;;1.60;1.50;;;3.80;90.20;;;;;;5013154;28;20433;-64
2021/04/05 12:34:41;;;;;;;3.28;2.03;;;3.30;91.10;;;;;;5015326;28;20029;-66
2021/04/05 12:37:16;;;;;;;2.38;1.80;;;2.80;91.80;;;;;;5028451;28;20033;-62
2021/04/05 12:39:44;;;;;;;3.60;1.90;;;2.60;92.60;;;;;;5018698;28;20030;-63
2021/04/05 12:42:11;;;;;;;4.68;2.22;;;2.40;93.20;;;;;;5026267;28;20161;-66
2021/04/05 12:44:39;;;;;;;3.35;2.17;;;2.50;93.10;;;;;;5029863;28;20037;-65
2021/04/05 12:47:08;;;;;;;3.85;2.00;;;2.50;93.10;;;;;;5032103;28;20034;-64
2021/04/05 12:49:51;;;;;;;8.25;2.42;;;2.60;92.80;;;;;;5032470;28;20041;-64
2021/04/05 12:52:19;;;;;;;4.95;2.40;;;2.40;92.80;;;;;;5035269;28;20037;-67
2021/04/05 12:54:48;;;;;;;2.80;2.33;;;2.50;92.70;;;;;;5017637;28;20026;-62
2021/04/05 12:57:15;;;;;;;5.32;2.28;;;2.70;92.90;;;;;;5033801;28;20045;-64
2021/04/05 12:59:42;;;;;;;4.32;2.50;;;2.80;92.60;;;;;;5020836;28;20120;-64
2021/04/05 13:02:10;;;;;;;3.92;2.28;;;2.90;91.80;;;;;;5023824;28;20030;-63
2021/04/05 13:04:40;;;;;;;4.93;2.30;;;2.70;92.20;;;;;;5029779;28;20045;-65
2021/04/05 13:07:13;;;;;;;3.13;2.20;;;2.80;92.40;;;;;;5032707;28;20064;-64
2021/04/05 13:09:43;;;;;;;2.53;2.22;;;2.90;92.20;;;;;;5020944;28;20052;-62
2021/04/05 13:12:19;;;;;;;2.70;2.30;;;2.90;92.10;;;;;;5018425;28;20037;-64
2021/04/05 13:15:02;;;;;;;3.33;2.10;;;2.90;92.10;;;;;;5022772;28;20033;-64
2021/04/05 13:17:34;;;;;;;2.88;2.10;;;2.80;91.80;;;;;;5022926;28;20095;-65
2021/04/05 13:20:04;;;;;;;3.53;1.85;;;2.90;92.00;;;;;;5026728;28;20029;-63
2021/04/05 13:22:35;;;;;;;4.55;1.83;;;2.90;90.80;;;;;;5013601;28;20029;-64